createdAt,value
2019-01-28T00:00:11.491Z,984.10
2019-01-28T00:01:11.477Z,984.12
2019-01-28T00:02:11.467Z,984.13
2019-01-28T00:03:11.455Z,984.12
2019-01-28T00:04:11.466Z,984.09
2019-01-28T00:05:11.436Z,984.12
2019-01-28T00:06:11.422Z,984.08
2019-01-28T00:07:11.410Z,984.09
2019-01-28T00:08:11.401Z,984.11
2019-01-28T00:09:11.415Z,984.16
2019-01-28T00:10:11.400Z,984.13
2019-01-28T00:11:11.365Z,984.15
2019-01-28T00:12:11.357Z,984.14
2019-01-28T00:13:11.347Z,984.18
2019-01-28T00:14:11.353Z,984.18
2019-01-28T00:15:11.322Z,984.19
2019-01-28T00:16:11.309Z,984.16
2019-01-28T00:17:11.300Z,984.25
2019-01-28T00:18:11.289Z,984.20
2019-01-28T00:19:11.295Z,984.23
2019-01-28T00:20:11.265Z,984.25
2019-01-28T00:21:11.253Z,984.20
2019-01-28T00:22:11.243Z,984.27
2019-01-28T00:23:11.234Z,984.19
2019-01-28T00:24:11.245Z,984.24
2019-01-28T00:25:11.209Z,984.24
2019-01-28T00:26:11.212Z,984.23
2019-01-28T00:27:11.187Z,984.22
2019-01-28T00:28:11.175Z,984.24
2019-01-28T00:29:11.197Z,984.20
2019-01-28T00:30:11.153Z,984.23
2019-01-28T00:31:11.144Z,984.18
2019-01-28T00:32:11.131Z,984.18
2019-01-28T00:33:11.125Z,984.19
2019-01-28T00:34:11.109Z,984.20
2019-01-28T00:35:11.123Z,984.18
2019-01-28T00:36:11.092Z,984.24
2019-01-28T00:37:11.076Z,984.20
2019-01-28T00:38:11.065Z,984.23
2019-01-28T00:39:11.053Z,984.13
2019-01-28T00:40:11.060Z,984.14
2019-01-28T00:41:11.030Z,984.17
2019-01-28T00:42:11.026Z,984.25
2019-01-28T00:43:11.010Z,984.22
2019-01-28T00:44:10.998Z,984.20
2019-01-28T00:45:11.011Z,984.18
2019-01-28T00:46:10.974Z,984.15
2019-01-28T00:47:10.969Z,984.21
2019-01-28T00:48:10.953Z,984.20
2019-01-28T00:49:10.946Z,984.23
2019-01-28T00:50:10.963Z,984.19
2019-01-28T00:51:10.922Z,984.17
2019-01-28T00:52:10.909Z,984.19
2019-01-28T00:53:10.906Z,984.17
2019-01-28T00:54:10.888Z,984.17
2019-01-28T00:55:10.915Z,984.20
2019-01-28T00:56:10.863Z,984.22
2019-01-28T00:57:10.853Z,984.19
2019-01-28T00:58:10.843Z,984.16
2019-01-28T00:59:10.875Z,984.14
2019-01-28T01:00:10.823Z,984.17
2019-01-28T01:01:10.826Z,984.14
2019-01-28T01:02:10.797Z,984.17
2019-01-28T01:03:10.785Z,984.16
2019-01-28T01:04:10.774Z,984.12
2019-01-28T01:05:10.763Z,984.14
2019-01-28T01:06:10.769Z,984.13
2019-01-28T01:07:10.742Z,984.16
2019-01-28T01:08:10.729Z,984.16
2019-01-28T01:09:10.718Z,984.16
2019-01-28T01:10:10.708Z,984.16
2019-01-28T01:11:10.715Z,984.20
2019-01-28T01:12:10.689Z,984.19
2019-01-28T01:13:10.671Z,984.13
2019-01-28T01:14:10.660Z,984.16
2019-01-28T01:15:10.649Z,984.19
2019-01-28T01:16:10.657Z,984.18
2019-01-28T01:17:10.630Z,984.19
2019-01-28T01:18:10.616Z,984.16
2019-01-28T01:19:10.604Z,984.24
2019-01-28T01:20:10.592Z,984.17
2019-01-28T01:21:10.602Z,984.20
2019-01-28T01:22:10.575Z,984.21
2019-01-28T01:23:10.559Z,984.22
2019-01-28T01:24:10.548Z,984.21
2019-01-28T01:25:10.540Z,984.17
2019-01-28T01:26:10.558Z,984.24
2019-01-28T01:27:10.515Z,984.32
2019-01-28T01:28:10.506Z,984.23
2019-01-28T01:29:10.493Z,984.22
2019-01-28T01:30:10.482Z,984.23
2019-01-28T01:31:10.470Z,984.19
2019-01-28T01:32:10.478Z,984.26
2019-01-28T01:33:10.448Z,984.21
2019-01-28T01:34:10.436Z,984.27
2019-01-28T01:35:10.428Z,984.26
2019-01-28T01:36:10.417Z,984.20
2019-01-28T01:37:10.424Z,984.22
2019-01-28T01:38:10.391Z,984.23
2019-01-28T01:39:10.385Z,984.24
2019-01-28T01:40:10.370Z,984.23
2019-01-28T01:41:10.373Z,984.21
2019-01-28T01:42:10.368Z,984.17
2019-01-28T01:43:10.352Z,984.18
2019-01-28T01:44:10.328Z,984.21
2019-01-28T01:45:10.329Z,984.20
2019-01-28T01:46:10.302Z,984.16
2019-01-28T01:47:10.313Z,984.17
2019-01-28T01:48:10.279Z,984.12
2019-01-28T01:49:10.284Z,984.15
2019-01-28T01:50:10.258Z,984.14
2019-01-28T01:51:10.246Z,984.16
2019-01-28T01:52:10.256Z,984.16
2019-01-28T01:53:10.224Z,984.15
2019-01-28T01:54:10.212Z,984.09
2019-01-28T01:55:10.201Z,984.07
2019-01-28T01:56:10.189Z,984.10
2019-01-28T01:57:10.241Z,984.13
2019-01-28T01:58:10.169Z,984.13
2019-01-28T01:59:10.167Z,984.14
2019-01-28T02:00:10.145Z,984.13
2019-01-28T02:01:10.134Z,984.04
2019-01-28T02:02:10.122Z,984.06
2019-01-28T02:03:10.149Z,984.09
2019-01-28T02:04:10.103Z,984.05
2019-01-28T02:05:10.104Z,984.02
2019-01-28T02:06:10.081Z,984.02
2019-01-28T02:07:10.070Z,984.03
2019-01-28T02:08:10.077Z,983.99
2019-01-28T02:09:10.045Z,983.97
2019-01-28T02:10:10.035Z,983.96
2019-01-28T02:11:10.024Z,983.91
2019-01-28T02:12:10.013Z,983.94
2019-01-28T02:13:10.018Z,983.97
2019-01-28T02:14:09.988Z,983.95
2019-01-28T02:15:09.976Z,983.91
2019-01-28T02:16:09.967Z,983.92
2019-01-28T02:17:09.956Z,983.92
2019-01-28T02:18:09.977Z,983.90
2019-01-28T02:19:09.932Z,983.90
2019-01-28T02:20:09.928Z,983.91
2019-01-28T02:21:09.917Z,983.86
2019-01-28T02:22:09.899Z,983.88
2019-01-28T02:23:09.887Z,983.91
2019-01-28T02:24:09.894Z,983.85
2019-01-28T02:25:09.864Z,983.87
2019-01-28T02:26:09.854Z,983.83
2019-01-28T02:27:09.843Z,983.83
2019-01-28T02:28:09.831Z,983.78
2019-01-28T02:29:09.841Z,983.82
2019-01-28T02:30:09.811Z,983.77
2019-01-28T02:31:09.802Z,983.75
2019-01-28T02:32:09.788Z,983.74
2019-01-28T02:33:09.774Z,983.71
2019-01-28T02:34:09.801Z,983.71
2019-01-28T02:35:09.757Z,983.67
2019-01-28T02:36:09.742Z,983.67
2019-01-28T02:37:09.745Z,983.66
2019-01-28T02:38:09.733Z,983.65
2019-01-28T02:39:09.707Z,983.61
2019-01-28T02:40:09.715Z,983.59
2019-01-28T02:41:09.691Z,983.59
2019-01-28T02:42:09.676Z,983.60
2019-01-28T02:43:09.663Z,983.62
2019-01-28T02:44:09.655Z,983.64
2019-01-28T02:45:09.663Z,983.65
2019-01-28T02:46:09.630Z,983.64
2019-01-28T02:47:09.619Z,983.64
2019-01-28T02:48:09.609Z,983.63
2019-01-28T02:49:09.598Z,983.67
2019-01-28T02:50:09.611Z,983.60
2019-01-28T02:51:09.576Z,983.67
2019-01-28T02:52:09.566Z,983.63
2019-01-28T02:53:09.554Z,983.60
2019-01-28T02:54:09.562Z,983.63
2019-01-28T02:55:09.563Z,983.63
2019-01-28T02:56:09.525Z,983.56
2019-01-28T02:57:09.514Z,983.60
2019-01-28T02:58:09.499Z,983.56
2019-01-28T02:59:09.486Z,983.57
2019-01-28T03:00:09.496Z,983.54
2019-01-28T03:01:09.464Z,983.52
2019-01-28T03:02:09.455Z,983.60
2019-01-28T03:03:09.443Z,983.58
2019-01-28T03:04:09.431Z,983.59
2019-01-28T03:05:09.444Z,983.53
2019-01-28T03:06:09.410Z,983.53
2019-01-28T03:07:09.404Z,983.49
2019-01-28T03:08:09.388Z,983.45
2019-01-28T03:09:09.376Z,983.40
2019-01-28T03:10:09.365Z,983.40
2019-01-28T03:11:10.522Z,983.44
2019-01-28T03:12:09.345Z,983.40
2019-01-28T03:13:09.337Z,983.42
2019-01-28T03:14:09.319Z,983.38
2019-01-28T03:15:09.309Z,983.33
2019-01-28T03:16:09.315Z,983.33
2019-01-28T03:17:09.288Z,983.33
2019-01-28T03:18:09.282Z,983.31
2019-01-28T03:19:09.262Z,983.36
2019-01-28T03:20:09.268Z,983.30
2019-01-28T03:21:09.272Z,983.31
2019-01-28T03:22:09.233Z,983.25
2019-01-28T03:23:09.221Z,983.28
2019-01-28T03:24:09.208Z,983.23
2019-01-28T03:25:09.197Z,983.26
2019-01-28T03:26:09.185Z,983.21
2019-01-28T03:27:09.195Z,983.19
2019-01-28T03:28:09.164Z,983.15
2019-01-28T03:29:09.154Z,983.15
2019-01-28T03:30:09.159Z,983.10
2019-01-28T03:31:09.133Z,983.11
2019-01-28T03:32:09.141Z,983.11
2019-01-28T03:33:09.135Z,983.15
2019-01-28T03:34:09.096Z,983.11
2019-01-28T03:35:09.085Z,983.10
2019-01-28T03:36:09.075Z,983.10
2019-01-28T03:37:09.083Z,983.10
2019-01-28T03:38:09.052Z,983.04
2019-01-28T03:39:09.047Z,983.01
2019-01-28T03:40:09.030Z,983.06
2019-01-28T03:41:09.021Z,983.00
2019-01-28T03:42:09.060Z,982.99
2019-01-28T03:43:09.001Z,982.96
2019-01-28T03:44:08.988Z,982.94
2019-01-28T03:45:08.980Z,982.92
2019-01-28T03:46:09.860Z,982.99
2019-01-28T03:47:08.958Z,982.92
2019-01-28T03:48:08.963Z,982.91
2019-01-28T03:49:08.932Z,982.97
2019-01-28T03:50:08.920Z,982.95
2019-01-28T03:51:08.910Z,982.92
2019-01-28T03:52:08.903Z,982.88
2019-01-28T03:53:08.912Z,982.93
2019-01-28T03:54:08.875Z,982.87
2019-01-28T03:55:08.865Z,982.87
2019-01-28T03:56:08.854Z,982.86
2019-01-28T03:57:08.845Z,982.89
2019-01-28T03:58:08.857Z,982.86
2019-01-28T03:59:08.819Z,982.82
2019-01-28T04:00:08.810Z,982.88
2019-01-28T04:01:08.805Z,982.91
2019-01-28T04:02:08.792Z,982.82
2019-01-28T04:03:08.798Z,982.88
2019-01-28T04:04:08.770Z,982.79
2019-01-28T04:05:08.758Z,982.75
2019-01-28T04:06:08.744Z,982.77
2019-01-28T04:07:08.736Z,982.72
2019-01-28T04:08:08.750Z,982.69
2019-01-28T04:09:08.713Z,982.66
2019-01-28T04:10:08.704Z,982.64
2019-01-28T04:11:08.691Z,982.61
2019-01-28T04:12:08.680Z,982.60
2019-01-28T04:13:08.684Z,982.59
2019-01-28T04:14:08.677Z,982.71
2019-01-28T04:15:08.646Z,982.62
2019-01-28T04:16:08.638Z,982.62
2019-01-28T04:17:08.627Z,982.65
2019-01-28T04:18:08.612Z,982.65
2019-01-28T04:19:08.621Z,982.58
2019-01-28T04:20:08.590Z,982.59
2019-01-28T04:21:08.580Z,982.61
2019-01-28T04:22:08.572Z,982.66
2019-01-28T04:23:08.563Z,982.66
2019-01-28T04:24:08.578Z,982.63
2019-01-28T04:25:08.535Z,982.62
2019-01-28T04:26:08.525Z,982.66
2019-01-28T04:27:08.519Z,982.64
2019-01-28T04:28:08.501Z,982.56
2019-01-28T04:29:08.510Z,982.64
2019-01-28T04:30:08.481Z,982.63
2019-01-28T04:31:08.492Z,982.67
2019-01-28T04:32:08.458Z,982.66
2019-01-28T04:33:08.456Z,982.59
2019-01-28T04:34:08.454Z,982.58
2019-01-28T04:35:08.424Z,982.62
2019-01-28T04:36:08.413Z,982.67
2019-01-28T04:37:08.403Z,982.62
2019-01-28T04:38:08.389Z,982.63
2019-01-28T04:39:08.427Z,982.61
2019-01-28T04:40:08.379Z,982.59
2019-01-28T04:41:08.362Z,982.56
2019-01-28T04:42:08.346Z,982.62
2019-01-28T04:43:08.334Z,982.58
2019-01-28T04:44:08.325Z,982.58
2019-01-28T04:45:08.335Z,982.56
2019-01-28T04:46:08.316Z,982.59
2019-01-28T04:47:08.291Z,982.66
2019-01-28T04:48:08.327Z,982.62
2019-01-28T04:49:08.271Z,982.59
2019-01-28T04:50:08.279Z,982.63
2019-01-28T04:51:08.246Z,982.62
2019-01-28T04:52:08.238Z,982.63
2019-01-28T04:53:08.224Z,982.57
2019-01-28T04:54:08.214Z,982.60
2019-01-28T04:55:08.220Z,982.56
2019-01-28T04:56:08.191Z,982.61
2019-01-28T04:57:08.180Z,982.59
2019-01-28T04:58:08.171Z,982.55
2019-01-28T04:59:08.160Z,982.54
2019-01-28T05:00:08.165Z,982.56
2019-01-28T05:01:08.137Z,982.55
2019-01-28T05:02:08.124Z,982.58
2019-01-28T05:03:08.127Z,982.60
2019-01-28T05:04:08.103Z,982.55
2019-01-28T05:05:08.130Z,982.63
2019-01-28T05:06:08.080Z,982.57
2019-01-28T05:07:08.070Z,982.51
2019-01-28T05:08:08.057Z,982.49
2019-01-28T05:09:08.055Z,982.57
2019-01-28T05:10:08.044Z,982.53
2019-01-28T05:11:08.041Z,982.50
2019-01-28T05:12:08.014Z,982.48
2019-01-28T05:13:08.002Z,982.45
2019-01-28T05:14:07.993Z,982.52
2019-01-28T05:15:07.980Z,982.54
2019-01-28T05:16:07.987Z,982.49
2019-01-28T05:17:07.957Z,982.50
2019-01-28T05:18:07.945Z,982.52
2019-01-28T05:19:07.935Z,982.49
2019-01-28T05:20:07.924Z,982.45
2019-01-28T05:21:07.935Z,982.49
2019-01-28T05:22:07.901Z,982.44
2019-01-28T05:23:07.893Z,982.41
2019-01-28T05:24:07.888Z,982.41
2019-01-28T05:25:07.871Z,982.45
2019-01-28T05:26:07.877Z,982.40
2019-01-28T05:27:07.846Z,982.38
2019-01-28T05:28:07.843Z,982.42
2019-01-28T05:29:07.824Z,982.49
2019-01-28T05:30:07.814Z,982.46
2019-01-28T05:31:07.824Z,982.38
2019-01-28T05:32:07.793Z,982.41
2019-01-28T05:33:16.247Z,982.36
2019-01-28T05:34:07.773Z,982.44
2019-01-28T05:35:07.759Z,982.41
2019-01-28T05:36:07.772Z,982.37
2019-01-28T05:37:07.757Z,982.35
2019-01-28T05:38:07.735Z,982.40
2019-01-28T05:39:07.769Z,982.39
2019-01-28T05:40:07.703Z,982.39
2019-01-28T05:41:07.709Z,982.36
2019-01-28T05:42:07.733Z,982.36
2019-01-28T05:43:07.670Z,982.35
2019-01-28T05:44:07.657Z,982.32
2019-01-28T05:45:07.713Z,982.32
2019-01-28T05:46:07.701Z,982.35
2019-01-28T05:47:07.645Z,982.33
2019-01-28T05:48:07.614Z,982.24
2019-01-28T05:49:07.602Z,982.29
2019-01-28T05:50:07.591Z,982.35
2019-01-28T05:51:07.579Z,982.33
2019-01-28T05:52:07.588Z,982.31
2019-01-28T05:53:16.241Z,982.26
2019-01-28T05:54:07.548Z,982.31
2019-01-28T05:55:07.536Z,982.26
2019-01-28T05:56:07.524Z,982.30
2019-01-28T05:57:08.683Z,982.25
2019-01-28T05:58:07.505Z,982.23
2019-01-28T05:59:07.490Z,982.29
2019-01-28T06:00:07.480Z,982.23
2019-01-28T06:01:07.472Z,982.26
2019-01-28T06:02:07.480Z,982.40
2019-01-28T06:03:07.449Z,982.30
2019-01-28T06:04:07.434Z,982.22
2019-01-28T06:05:07.426Z,982.24
2019-01-28T06:06:07.415Z,982.30
2019-01-28T06:07:07.421Z,982.37
2019-01-28T06:08:07.395Z,982.35
2019-01-28T06:09:07.381Z,982.33
2019-01-28T06:10:07.366Z,982.31
2019-01-28T06:11:07.358Z,982.32
2019-01-28T06:12:07.370Z,982.32
2019-01-28T06:13:07.338Z,982.32
2019-01-28T06:14:07.323Z,982.40
2019-01-28T06:15:07.312Z,982.42
2019-01-28T06:16:07.300Z,982.39
2019-01-28T06:17:07.309Z,982.38
2019-01-28T06:18:07.279Z,982.38
2019-01-28T06:19:07.420Z,982.37
2019-01-28T06:20:07.256Z,982.42
2019-01-28T06:21:07.254Z,982.38
2019-01-28T06:22:07.253Z,982.41
2019-01-28T06:23:07.224Z,982.38
2019-01-28T06:24:07.210Z,982.47
2019-01-28T06:25:07.200Z,982.44
2019-01-28T06:26:07.187Z,982.43
2019-01-28T06:27:07.195Z,982.39
2019-01-28T06:28:07.166Z,982.48
2019-01-28T06:29:07.159Z,982.44
2019-01-28T06:30:07.144Z,982.47
2019-01-28T06:31:07.133Z,982.44
2019-01-28T06:32:07.139Z,982.53
2019-01-28T06:33:07.110Z,982.49
2019-01-28T06:34:07.102Z,982.49
2019-01-28T06:35:07.090Z,982.44
2019-01-28T06:36:07.081Z,982.48
2019-01-28T06:37:07.083Z,982.51
2019-01-28T06:38:07.056Z,982.48
2019-01-28T06:39:07.042Z,982.50
2019-01-28T06:40:07.032Z,982.49
2019-01-28T06:41:07.022Z,982.47
2019-01-28T06:42:07.028Z,982.49
2019-01-28T06:43:07.004Z,982.57
2019-01-28T06:44:06.990Z,982.55
2019-01-28T06:45:06.982Z,982.56
2019-01-28T06:46:06.965Z,982.53
2019-01-28T06:47:16.699Z,982.53
2019-01-28T06:48:06.945Z,982.55
2019-01-28T06:49:06.930Z,982.53
2019-01-28T06:50:06.921Z,982.51
2019-01-28T06:51:06.910Z,982.53
2019-01-28T06:52:06.916Z,982.57
2019-01-28T06:53:06.886Z,982.55
2019-01-28T06:54:06.877Z,982.49
2019-01-28T06:55:06.865Z,982.53
2019-01-28T06:56:06.854Z,982.58
2019-01-28T06:57:06.861Z,982.62
2019-01-28T06:58:06.856Z,982.59
2019-01-28T06:59:06.828Z,982.61
2019-01-28T07:00:06.808Z,982.59
2019-01-28T07:01:06.883Z,982.63
2019-01-28T07:02:06.811Z,982.61
2019-01-28T07:03:06.777Z,982.60
2019-01-28T07:04:06.766Z,982.66
2019-01-28T07:05:06.755Z,982.69
2019-01-28T07:06:06.741Z,982.66
2019-01-28T07:07:06.749Z,982.62
2019-01-28T07:08:06.723Z,982.72
2019-01-28T07:09:06.710Z,982.67
2019-01-28T07:10:06.699Z,982.72
2019-01-28T07:11:15.053Z,982.72
2019-01-28T07:12:06.712Z,982.70
2019-01-28T07:13:06.664Z,982.74
2019-01-28T07:14:06.653Z,982.71
2019-01-28T07:15:06.641Z,982.77
2019-01-28T07:16:06.631Z,982.77
2019-01-28T07:17:06.638Z,982.76
2019-01-28T07:18:06.615Z,982.78
2019-01-28T07:19:06.603Z,982.79
2019-01-28T07:20:06.587Z,982.89
2019-01-28T07:21:06.581Z,982.85
2019-01-28T07:22:06.584Z,982.85
2019-01-28T07:23:06.554Z,982.89
2019-01-28T07:24:06.545Z,982.90
2019-01-28T07:25:06.534Z,982.89
2019-01-28T07:26:06.526Z,982.90
2019-01-28T07:27:06.530Z,982.92
2019-01-28T07:28:06.501Z,982.95
2019-01-28T07:29:06.488Z,982.99
2019-01-28T07:30:06.478Z,982.98
2019-01-28T07:31:06.466Z,983.00
2019-01-28T07:32:06.475Z,983.07
2019-01-28T07:33:06.447Z,983.02
2019-01-28T07:34:06.434Z,983.00
2019-01-28T07:35:06.423Z,982.99
2019-01-28T07:36:06.412Z,983.08
2019-01-28T07:37:06.421Z,983.08
2019-01-28T07:38:06.390Z,982.99
2019-01-28T07:39:06.380Z,983.00
2019-01-28T07:40:06.381Z,983.02
2019-01-28T07:41:06.357Z,983.04
2019-01-28T07:42:06.365Z,983.02
2019-01-28T07:43:06.338Z,983.03
2019-01-28T07:44:06.324Z,983.07
2019-01-28T07:45:06.314Z,983.12
2019-01-28T07:46:06.302Z,983.06
2019-01-28T07:47:06.321Z,983.05
2019-01-28T07:48:06.279Z,983.13
2019-01-28T07:49:06.268Z,983.13
2019-01-28T07:50:06.259Z,983.15
2019-01-28T07:51:06.252Z,983.13
2019-01-28T07:52:06.235Z,983.19
2019-01-28T07:53:06.243Z,983.12
2019-01-28T07:54:06.214Z,983.20
2019-01-28T07:55:06.203Z,983.15
2019-01-28T07:56:06.196Z,983.15
2019-01-28T07:57:06.181Z,983.14
2019-01-28T07:58:06.193Z,983.19
2019-01-28T07:59:06.159Z,983.19
2019-01-28T08:00:06.151Z,983.21
2019-01-28T08:01:06.140Z,983.26
2019-01-28T08:02:06.127Z,983.21
2019-01-28T08:03:06.137Z,983.24
2019-01-28T08:04:06.105Z,983.25
2019-01-28T08:05:06.093Z,983.23
2019-01-28T08:06:06.082Z,983.25
2019-01-28T08:07:06.072Z,983.28
2019-01-28T08:08:06.084Z,983.26
2019-01-28T08:09:06.049Z,983.23
2019-01-28T08:10:06.042Z,983.24
2019-01-28T08:11:06.026Z,983.24
2019-01-28T08:12:06.017Z,983.27
2019-01-28T08:13:06.025Z,983.28
2019-01-28T08:14:06.008Z,983.33
2019-01-28T08:15:05.993Z,983.42
2019-01-28T08:16:05.970Z,983.28
2019-01-28T08:17:05.964Z,983.26
2019-01-28T08:18:10.642Z,983.31
2019-01-28T08:19:05.939Z,983.31
2019-01-28T08:20:11.396Z,983.36
2019-01-28T08:21:05.925Z,983.33
2019-01-28T08:22:05.905Z,983.31
2019-01-28T08:23:05.919Z,983.35
2019-01-28T08:24:05.885Z,983.35
2019-01-28T08:25:05.880Z,983.33
2019-01-28T08:26:05.860Z,983.37
2019-01-28T08:27:05.848Z,983.37
2019-01-28T08:28:05.862Z,983.40
2019-01-28T08:29:05.829Z,983.40
2019-01-28T08:30:05.815Z,983.44
2019-01-28T08:31:05.805Z,983.39
2019-01-28T08:32:05.793Z,983.45
2019-01-28T08:33:05.803Z,983.43
2019-01-28T08:34:05.773Z,983.41
2019-01-28T08:35:05.760Z,983.44
2019-01-28T08:36:05.749Z,983.37
2019-01-28T08:37:05.738Z,983.43
2019-01-28T08:38:05.750Z,983.34
2019-01-28T08:39:05.717Z,983.41
2019-01-28T08:40:05.703Z,983.40
2019-01-28T08:41:05.693Z,983.44
2019-01-28T08:42:05.683Z,983.48
2019-01-28T08:43:05.699Z,983.47
2019-01-28T08:44:05.663Z,983.49
2019-01-28T08:45:05.647Z,983.43
2019-01-28T08:46:05.638Z,983.46
2019-01-28T08:47:05.626Z,983.42
2019-01-28T08:48:05.634Z,983.40
2019-01-28T08:49:05.605Z,983.40
2019-01-28T08:50:05.593Z,983.39
2019-01-28T08:51:05.582Z,983.43
2019-01-28T08:52:05.570Z,983.43
2019-01-28T08:53:05.579Z,983.43
2019-01-28T08:54:05.547Z,983.44
2019-01-28T08:55:05.536Z,983.49
2019-01-28T08:56:05.525Z,983.44
2019-01-28T08:57:05.516Z,983.43
2019-01-28T08:58:05.522Z,983.44
2019-01-28T08:59:05.498Z,983.51
2019-01-28T09:00:05.482Z,983.48
2019-01-28T09:01:05.475Z,983.46
2019-01-28T09:02:05.458Z,983.52
2019-01-28T09:03:05.471Z,983.53
2019-01-28T09:04:05.437Z,983.52
2019-01-28T09:05:05.424Z,983.59
2019-01-28T09:06:05.416Z,983.55
2019-01-28T09:07:05.404Z,983.58
2019-01-28T09:08:05.410Z,983.64
2019-01-28T09:09:05.379Z,983.64
2019-01-28T09:10:05.368Z,983.56
2019-01-28T09:11:05.360Z,983.53
2019-01-28T09:12:05.349Z,983.56
2019-01-28T09:13:05.359Z,983.53
2019-01-28T09:14:05.323Z,983.54
2019-01-28T09:15:05.312Z,983.61
2019-01-28T09:16:05.302Z,983.68
2019-01-28T09:17:05.291Z,983.63
2019-01-28T09:18:05.303Z,983.67
2019-01-28T09:19:05.271Z,983.65
2019-01-28T09:20:05.259Z,983.72
2019-01-28T09:21:05.246Z,983.71
2019-01-28T09:22:05.234Z,983.69
2019-01-28T09:23:05.243Z,983.80
2019-01-28T09:24:05.218Z,983.75
2019-01-28T09:25:05.201Z,983.78
2019-01-28T09:26:06.598Z,983.79
2019-01-28T09:27:05.179Z,983.81
2019-01-28T09:28:05.191Z,983.78
2019-01-28T09:29:05.158Z,983.89
2019-01-28T09:30:05.146Z,983.85
2019-01-28T09:31:05.135Z,983.84
2019-01-28T09:32:05.124Z,983.97
2019-01-28T09:33:05.131Z,983.98
2019-01-28T09:34:05.101Z,984.03
2019-01-28T09:35:05.098Z,984.07
2019-01-28T09:36:05.078Z,984.13
2019-01-28T09:37:05.071Z,984.12
2019-01-28T09:38:05.076Z,984.10
2019-01-28T09:39:05.047Z,984.17
2019-01-28T09:40:05.039Z,984.18
2019-01-28T09:41:05.022Z,984.14
2019-01-28T09:42:05.013Z,984.17
2019-01-28T09:43:05.034Z,984.18
2019-01-28T09:44:04.992Z,984.17
2019-01-28T09:45:04.985Z,984.21
2019-01-28T09:46:04.974Z,984.21
2019-01-28T09:47:04.957Z,984.23
2019-01-28T09:48:04.970Z,984.30
2019-01-28T09:49:04.956Z,984.35
2019-01-28T09:50:04.925Z,984.32
2019-01-28T09:51:04.915Z,984.27
2019-01-28T09:52:04.903Z,984.34
2019-01-28T09:53:04.892Z,984.35
2019-01-28T09:54:04.898Z,984.32
2019-01-28T09:55:04.867Z,984.38
2019-01-28T09:56:04.858Z,984.43
2019-01-28T09:57:04.844Z,984.45
2019-01-28T09:58:04.838Z,984.42
2019-01-28T09:59:04.840Z,984.45
2019-01-28T10:00:04.816Z,984.43
2019-01-28T10:01:04.798Z,984.45
2019-01-28T10:02:04.791Z,984.43
2019-01-28T10:03:04.778Z,984.45
2019-01-28T10:04:04.821Z,984.52
2019-01-28T10:05:04.756Z,984.52
2019-01-28T10:06:04.744Z,984.50
2019-01-28T10:07:04.735Z,984.56
2019-01-28T10:08:04.721Z,984.60
2019-01-28T10:09:10.039Z,984.63
2019-01-28T10:10:04.701Z,984.66
2019-01-28T10:11:04.690Z,984.66
2019-01-28T10:12:04.681Z,984.68
2019-01-28T10:13:57.095Z,984.79
2019-01-28T10:14:57.059Z,984.69
2019-01-28T10:15:57.054Z,984.74
2019-01-28T10:16:57.044Z,984.67
2019-01-28T10:17:57.029Z,984.75
2019-01-28T10:18:57.037Z,984.79
2019-01-28T10:19:57.008Z,984.83
2019-01-28T10:20:56.993Z,984.84
2019-01-28T10:21:56.986Z,984.85
2019-01-28T10:22:56.970Z,984.82
2019-01-28T10:23:56.982Z,984.83
2019-01-28T10:24:56.948Z,984.84
2019-01-28T10:25:57.859Z,984.91
2019-01-28T10:26:56.930Z,984.93
2019-01-28T10:27:56.915Z,984.94
2019-01-28T10:28:56.925Z,984.99
2019-01-28T10:29:56.891Z,985.12
2019-01-28T10:30:56.880Z,984.98
2019-01-28T10:31:56.874Z,985.02
2019-01-28T10:32:56.864Z,984.94
2019-01-28T10:33:56.869Z,985.01
2019-01-28T10:34:56.837Z,984.99
2019-01-28T10:35:56.826Z,985.01
2019-01-28T10:36:56.823Z,985.00
2019-01-28T10:37:56.814Z,984.98
2019-01-28T10:38:56.832Z,985.01
2019-01-28T10:39:56.780Z,985.07
2019-01-28T10:40:56.770Z,985.06
2019-01-28T10:41:56.757Z,985.11
2019-01-28T10:42:56.752Z,985.08
2019-01-28T10:43:56.756Z,985.15
2019-01-28T10:44:56.727Z,985.16
2019-01-28T10:45:56.713Z,985.10
2019-01-28T10:46:56.703Z,985.23
2019-01-28T10:48:00.611Z,985.18
2019-01-28T10:48:56.701Z,985.21
2019-01-28T10:49:56.668Z,985.26
2019-01-28T10:50:56.657Z,985.26
2019-01-28T10:51:58.136Z,985.22
2019-01-28T10:52:56.637Z,985.27
2019-01-28T10:53:56.648Z,985.27
2019-01-28T10:54:56.616Z,985.31
2019-01-28T10:55:56.602Z,985.26
2019-01-28T10:56:56.597Z,985.31
2019-01-28T10:57:56.579Z,985.27
2019-01-28T10:58:56.596Z,985.28
2019-01-28T10:59:56.561Z,985.32
2019-01-28T11:00:56.551Z,985.40
2019-01-28T11:01:56.534Z,985.33
2019-01-28T11:02:56.526Z,985.34
2019-01-28T11:03:56.533Z,985.39
2019-01-28T11:04:56.502Z,985.39
2019-01-28T11:05:56.496Z,985.40
2019-01-28T11:06:56.479Z,985.38
2019-01-28T11:07:56.467Z,985.45
2019-01-28T11:08:56.476Z,985.41
2019-01-28T11:09:56.503Z,985.44
2019-01-28T11:10:56.433Z,985.45
2019-01-28T11:11:56.509Z,985.53
2019-01-28T11:12:56.524Z,985.55
2019-01-28T11:13:56.520Z,985.55
2019-01-28T11:14:56.494Z,985.55
2019-01-28T11:15:56.388Z,985.52
2019-01-28T11:16:56.390Z,985.49
2019-01-28T11:17:56.365Z,985.60
2019-01-28T11:18:57.822Z,985.62
2019-01-28T11:19:56.373Z,985.59
2019-01-28T11:20:56.339Z,985.58
2019-01-28T11:21:56.334Z,985.62
2019-01-28T11:22:56.300Z,985.69
2019-01-28T11:23:56.377Z,985.68
2019-01-28T11:24:56.396Z,985.71
2019-01-28T11:25:56.319Z,985.68
2019-01-28T11:26:56.360Z,985.78
2019-01-28T11:27:56.367Z,985.74
2019-01-28T11:28:56.364Z,985.73
2019-01-28T11:29:56.327Z,985.85
2019-01-28T11:30:56.338Z,985.86
2019-01-28T11:31:56.277Z,985.81
2019-01-28T11:32:56.194Z,985.83
2019-01-28T11:33:56.198Z,985.86
2019-01-28T11:34:56.220Z,985.90
2019-01-28T11:35:57.425Z,985.90
2019-01-28T11:36:56.234Z,985.96
2019-01-28T11:37:56.229Z,986.04
2019-01-28T11:38:56.225Z,985.98
2019-01-28T11:39:56.147Z,985.96
2019-01-28T11:40:56.107Z,985.92
2019-01-28T11:41:56.160Z,986.04
2019-01-28T11:42:56.083Z,986.13
2019-01-28T11:43:56.085Z,985.95
2019-01-28T11:44:56.103Z,986.02
2019-01-28T11:45:56.047Z,986.09
2019-01-28T11:46:56.105Z,986.13
2019-01-28T11:47:56.022Z,986.05
2019-01-28T11:48:56.045Z,986.12
2019-01-28T11:49:56.204Z,986.10
2019-01-28T11:50:56.465Z,986.07
2019-01-28T11:51:55.978Z,986.06
2019-01-28T11:52:55.967Z,986.10
2019-01-28T11:53:55.952Z,986.17
2019-01-28T11:54:55.961Z,986.17
2019-01-28T11:55:55.930Z,986.37
2019-01-28T11:56:55.929Z,986.28
2019-01-28T11:57:55.909Z,986.23
2019-01-28T11:58:55.900Z,986.20
2019-01-28T11:59:55.908Z,986.25
2019-01-28T12:00:55.877Z,986.25
2019-01-28T12:01:55.865Z,986.42
2019-01-28T12:02:55.855Z,986.35
2019-01-28T12:03:55.842Z,986.40
2019-01-28T12:04:55.855Z,986.41
2019-01-28T12:05:55.823Z,986.42
2019-01-28T12:06:55.808Z,986.40
2019-01-28T12:07:55.796Z,986.45
2019-01-28T12:08:55.787Z,986.52
2019-01-28T12:09:55.793Z,986.48
2019-01-28T12:10:55.765Z,986.46
2019-01-28T12:11:55.752Z,986.49
2019-01-28T12:12:55.743Z,986.51
2019-01-28T12:13:55.731Z,986.60
2019-01-28T12:14:55.738Z,986.61
2019-01-28T12:15:55.714Z,986.58
2019-01-28T12:16:55.742Z,986.66
2019-01-28T12:17:55.687Z,986.67
2019-01-28T12:18:55.678Z,986.68
2019-01-28T12:19:55.687Z,986.68
2019-01-28T12:20:55.657Z,986.63
2019-01-28T12:21:55.642Z,986.81
2019-01-28T12:22:55.633Z,986.76
2019-01-28T12:23:55.620Z,986.77
2019-01-28T12:24:55.626Z,986.72
2019-01-28T12:25:55.601Z,986.77
2019-01-28T12:26:55.585Z,986.81
2019-01-28T12:27:55.575Z,986.85
2019-01-28T12:28:55.564Z,986.80